ウルムチ の空港の天気 - METARとTAF

ウルムチ地窩堡国際空港 ( ZWWW / URC ) - 中国 新疆ウイグル自治区ウルムチ市
飛行場実況気象(Metar)
観測時間10/18 16:00 CST (10/18 08:00 UTC)
風向・風速南南東 4m/s
視程10km以上
天気現象
全天の8割程度の雲 雲底高度 1400m
気温8℃
湿度61%
気圧1031hPa
METARZWWW 180800Z 15004MPS 100V190 9999 BKN046 08/01 Q1031 NOSIG
過去の天気等 Google飛行場航空写真 Wunderground天気予報

過去48時間のMETAR

飛行場予報(TAF)
発表時間: 10/18 11:03 CST (10/18 03:03 UTC)
予報対象時間: 18日14時 CST ~ 19日14時 CST
風向・風速西北西 4m/s
視程10km以上
天気現象弱いしゅう雨
全天の8割程度の雲 雲底高度 910m
18日15時 CST ~ 18日16時 CST に徐々に
視程10km以上
なし
18日21時 CST ~ 18日22時 CST に徐々に
風向・風速南 4m/s
19日11時 CST ~ 19日12時 CST に徐々に
風向・風速北 4m/s
TAF ZWWW 180303Z 1806/1906 29004MPS 9999 -SHRA BKN030 TX05/1809Z TN01/1822Z
BECMG 1807/1808 CAVOK
BECMG 1813/1814 18004MPS
BECMG 1903/1904 36004MPS